sensor_id;sensor_type;location;lat;lon;timestamp;P1;durP1;ratioP1;P2;durP2;ratioP2
75220;SDS011;63802;53.232;6.570;2022-12-29T00:01:13;10.13;;;5.18;;
75220;SDS011;63802;53.232;6.570;2022-12-29T00:03:39;7.85;;;4.28;;
75220;SDS011;63802;53.232;6.570;2022-12-29T00:06:04;7.55;;;4.13;;
75220;SDS011;63802;53.232;6.570;2022-12-29T00:08:29;9.55;;;4.53;;
75220;SDS011;63802;53.232;6.570;2022-12-29T00:11:17;8.00;;;4.72;;
75220;SDS011;63802;53.232;6.570;2022-12-29T00:13:45;9.27;;;5.68;;
75220;SDS011;63802;53.232;6.570;2022-12-29T00:16:29;8.55;;;4.47;;
75220;SDS011;63802;53.232;6.570;2022-12-29T00:18:56;8.70;;;5.13;;
75220;SDS011;63802;53.232;6.570;2022-12-29T00:21:22;8.43;;;4.63;;
75220;SDS011;63802;53.232;6.570;2022-12-29T00:24:15;9.77;;;4.80;;
75220;SDS011;63802;53.232;6.570;2022-12-29T00:29:47;9.25;;;4.25;;
75220;SDS011;63802;53.232;6.570;2022-12-29T00:32:34;9.82;;;4.57;;
75220;SDS011;63802;53.232;6.570;2022-12-29T00:35:23;9.20;;;4.78;;
75220;SDS011;63802;53.232;6.570;2022-12-29T00:37:52;7.05;;;4.32;;
75220;SDS011;63802;53.232;6.570;2022-12-29T00:40:54;7.40;;;4.28;;
75220;SDS011;63802;53.232;6.570;2022-12-29T00:43:42;7.25;;;4.30;;
75220;SDS011;63802;53.232;6.570;2022-12-29T00:46:26;6.90;;;4.07;;
75220;SDS011;63802;53.232;6.570;2022-12-29T00:48:51;7.25;;;4.70;;
75220;SDS011;63802;53.232;6.570;2022-12-29T00:51:35;7.22;;;4.28;;
75220;SDS011;63802;53.232;6.570;2022-12-29T00:54:01;6.55;;;4.28;;
75220;SDS011;63802;53.232;6.570;2022-12-29T00:56:26;7.57;;;4.18;;
75220;SDS011;63802;53.232;6.570;2022-12-29T00:58:51;7.07;;;4.10;;
75220;SDS011;63802;53.232;6.570;2022-12-29T01:01:17;8.57;;;4.20;;
75220;SDS011;63802;53.232;6.570;2022-12-29T01:03:42;6.60;;;4.13;;
75220;SDS011;63802;53.232;6.570;2022-12-29T01:06:08;7.60;;;4.38;;
75220;SDS011;63802;53.232;6.570;2022-12-29T01:08:35;9.15;;;4.70;;
75220;SDS011;63802;53.232;6.570;2022-12-29T01:11:02;8.55;;;4.50;;
75220;SDS011;63802;53.232;6.570;2022-12-29T01:13:30;8.30;;;4.95;;
75220;SDS011;63802;53.232;6.570;2022-12-29T01:15:56;7.78;;;4.15;;
75220;SDS011;63802;53.232;6.570;2022-12-29T01:18:22;9.32;;;4.70;;
75220;SDS011;63802;53.232;6.570;2022-12-29T01:20:49;7.43;;;4.55;;
75220;SDS011;63802;53.232;6.570;2022-12-29T01:23:14;6.38;;;4.05;;
75220;SDS011;63802;53.232;6.570;2022-12-29T01:25:40;9.55;;;4.43;;
75220;SDS011;63802;53.232;6.570;2022-12-29T01:28:05;7.70;;;4.68;;
75220;SDS011;63802;53.232;6.570;2022-12-29T01:30:33;7.90;;;4.55;;
75220;SDS011;63802;53.232;6.570;2022-12-29T01:32:59;8.00;;;4.32;;
75220;SDS011;63802;53.232;6.570;2022-12-29T01:35:25;8.50;;;4.28;;
75220;SDS011;63802;53.232;6.570;2022-12-29T01:37:50;6.97;;;4.35;;
75220;SDS011;63802;53.232;6.570;2022-12-29T01:40:16;9.30;;;4.38;;
75220;SDS011;63802;53.232;6.570;2022-12-29T01:42:41;7.40;;;4.80;;
75220;SDS011;63802;53.232;6.570;2022-12-29T01:45:10;8.48;;;4.30;;
75220;SDS011;63802;53.232;6.570;2022-12-29T01:47:41;9.23;;;4.78;;
75220;SDS011;63802;53.232;6.570;2022-12-29T01:52:58;10.00;;;4.85;;
75220;SDS011;63802;53.232;6.570;2022-12-29T01:55:30;8.00;;;4.65;;
75220;SDS011;63802;53.232;6.570;2022-12-29T01:57:59;9.73;;;5.15;;
75220;SDS011;63802;53.232;6.570;2022-12-29T02:00:28;9.73;;;5.07;;
75220;SDS011;63802;53.232;6.570;2022-12-29T02:02:54;9.38;;;5.15;;
75220;SDS011;63802;53.232;6.570;2022-12-29T02:07:54;9.52;;;5.45;;
75220;SDS011;63802;53.232;6.570;2022-12-29T02:10:20;10.27;;;5.15;;
75220;SDS011;63802;53.232;6.570;2022-12-29T02:12:47;9.10;;;4.82;;
75220;SDS011;63802;53.232;6.570;2022-12-29T02:15:13;10.40;;;5.00;;
75220;SDS011;63802;53.232;6.570;2022-12-29T02:17:41;11.05;;;5.00;;
75220;SDS011;63802;53.232;6.570;2022-12-29T02:29:15;6.32;;;3.58;;
75220;SDS011;63802;53.232;6.570;2022-12-29T02:42:32;5.57;;;3.05;;
75220;SDS011;63802;53.232;6.570;2022-12-29T02:50:24;7.53;;;3.05;;
75220;SDS011;63802;53.232;6.570;2022-12-29T02:53:14;6.22;;;3.00;;
75220;SDS011;63802;53.232;6.570;2022-12-29T02:55:48;4.15;;;2.72;;
75220;SDS011;63802;53.232;6.570;2022-12-29T02:58:16;5.50;;;2.75;;
75220;SDS011;63802;53.232;6.570;2022-12-29T03:04:03;6.03;;;3.03;;
75220;SDS011;63802;53.232;6.570;2022-12-29T03:11:59;4.10;;;2.55;;
75220;SDS011;63802;53.232;6.570;2022-12-29T03:17:49;4.57;;;2.38;;
75220;SDS011;63802;53.232;6.570;2022-12-29T03:20:23;6.25;;;2.70;;
75220;SDS011;63802;53.232;6.570;2022-12-29T03:22:53;4.40;;;2.50;;
75220;SDS011;63802;53.232;6.570;2022-12-29T03:25:27;5.60;;;2.80;;
75220;SDS011;63802;53.232;6.570;2022-12-29T03:27:56;5.55;;;2.70;;
75220;SDS011;63802;53.232;6.570;2022-12-29T03:30:34;4.63;;;2.45;;
75220;SDS011;63802;53.232;6.570;2022-12-29T03:33:03;3.97;;;2.45;;
75220;SDS011;63802;53.232;6.570;2022-12-29T03:35:33;4.50;;;2.65;;
75220;SDS011;63802;53.232;6.570;2022-12-29T03:40:40;3.55;;;1.90;;
75220;SDS011;63802;53.232;6.570;2022-12-29T03:43:09;4.85;;;2.25;;
75220;SDS011;63802;53.232;6.570;2022-12-29T03:45:37;3.40;;;1.85;;
75220;SDS011;63802;53.232;6.570;2022-12-29T03:48:02;5.25;;;1.83;;
75220;SDS011;63802;53.232;6.570;2022-12-29T03:50:28;3.85;;;1.85;;
75220;SDS011;63802;53.232;6.570;2022-12-29T03:52:53;4.07;;;1.75;;
75220;SDS011;63802;53.232;6.570;2022-12-29T03:55:19;3.60;;;1.98;;
75220;SDS011;63802;53.232;6.570;2022-12-29T03:57:44;3.50;;;2.10;;
75220;SDS011;63802;53.232;6.570;2022-12-29T04:00:10;3.40;;;2.20;;
75220;SDS011;63802;53.232;6.570;2022-12-29T04:02:36;7.10;;;2.25;;
75220;SDS011;63802;53.232;6.570;2022-12-29T04:05:01;4.30;;;2.00;;
75220;SDS011;63802;53.232;6.570;2022-12-29T04:07:27;5.00;;;2.50;;
75220;SDS011;63802;53.232;6.570;2022-12-29T04:09:53;4.65;;;1.98;;
75220;SDS011;63802;53.232;6.570;2022-12-29T04:12:18;3.88;;;2.22;;
75220;SDS011;63802;53.232;6.570;2022-12-29T04:14:43;4.88;;;2.08;;
75220;SDS011;63802;53.232;6.570;2022-12-29T04:17:09;4.25;;;2.42;;
75220;SDS011;63802;53.232;6.570;2022-12-29T04:19:36;4.63;;;2.08;;
75220;SDS011;63802;53.232;6.570;2022-12-29T04:22:01;5.72;;;2.30;;
75220;SDS011;63802;53.232;6.570;2022-12-29T04:24:26;5.90;;;2.00;;
75220;SDS011;63802;53.232;6.570;2022-12-29T04:26:52;7.40;;;1.90;;
75220;SDS011;63802;53.232;6.570;2022-12-29T04:29:17;3.10;;;2.13;;
75220;SDS011;63802;53.232;6.570;2022-12-29T04:31:43;7.40;;;2.00;;
75220;SDS011;63802;53.232;6.570;2022-12-29T04:34:08;4.68;;;1.90;;
75220;SDS011;63802;53.232;6.570;2022-12-29T04:36:33;2.72;;;1.35;;
75220;SDS011;63802;53.232;6.570;2022-12-29T04:38:59;3.33;;;1.40;;
75220;SDS011;63802;53.232;6.570;2022-12-29T04:41:24;3.83;;;1.35;;
75220;SDS011;63802;53.232;6.570;2022-12-29T04:43:49;4.13;;;1.30;;
75220;SDS011;63802;53.232;6.570;2022-12-29T04:46:15;3.47;;;1.40;;
75220;SDS011;63802;53.232;6.570;2022-12-29T04:48:41;5.85;;;1.50;;
75220;SDS011;63802;53.232;6.570;2022-12-29T04:51:06;4.22;;;1.33;;
75220;SDS011;63802;53.232;6.570;2022-12-29T04:53:31;5.50;;;1.70;;
75220;SDS011;63802;53.232;6.570;2022-12-29T04:55:57;5.95;;;1.20;;
75220;SDS011;63802;53.232;6.570;2022-12-29T04:58:22;5.55;;;1.08;;
75220;SDS011;63802;53.232;6.570;2022-12-29T05:00:48;1.60;;;1.08;;
75220;SDS011;63802;53.232;6.570;2022-12-29T05:03:13;3.35;;;1.63;;
75220;SDS011;63802;53.232;6.570;2022-12-29T05:05:38;4.75;;;1.05;;
75220;SDS011;63802;53.232;6.570;2022-12-29T05:08:04;6.43;;;1.88;;
75220;SDS011;63802;53.232;6.570;2022-12-29T05:10:29;5.57;;;1.35;;
75220;SDS011;63802;53.232;6.570;2022-12-29T05:12:55;9.50;;;1.50;;
75220;SDS011;63802;53.232;6.570;2022-12-29T05:15:20;5.78;;;1.20;;
75220;SDS011;63802;53.232;6.570;2022-12-29T05:17:46;6.30;;;1.55;;
75220;SDS011;63802;53.232;6.570;2022-12-29T05:20:11;7.38;;;1.63;;
75220;SDS011;63802;53.232;6.570;2022-12-29T05:22:37;5.40;;;1.60;;
75220;SDS011;63802;53.232;6.570;2022-12-29T05:25:02;7.05;;;1.60;;
75220;SDS011;63802;53.232;6.570;2022-12-29T05:27:28;5.13;;;1.58;;
75220;SDS011;63802;53.232;6.570;2022-12-29T05:29:53;9.23;;;1.38;;
75220;SDS011;63802;53.232;6.570;2022-12-29T05:32:19;8.93;;;1.65;;
75220;SDS011;63802;53.232;6.570;2022-12-29T05:34:44;5.63;;;1.30;;
75220;SDS011;63802;53.232;6.570;2022-12-29T05:37:10;6.18;;;1.70;;
75220;SDS011;63802;53.232;6.570;2022-12-29T05:39:35;8.80;;;1.92;;
75220;SDS011;63802;53.232;6.570;2022-12-29T05:42:00;9.50;;;1.73;;
75220;SDS011;63802;53.232;6.570;2022-12-29T05:44:26;9.27;;;1.85;;
75220;SDS011;63802;53.232;6.570;2022-12-29T05:46:51;11.57;;;1.92;;
75220;SDS011;63802;53.232;6.570;2022-12-29T05:49:16;8.02;;;1.88;;
75220;SDS011;63802;53.232;6.570;2022-12-29T05:51:42;9.32;;;1.80;;
75220;SDS011;63802;53.232;6.570;2022-12-29T05:54:07;3.17;;;1.77;;
75220;SDS011;63802;53.232;6.570;2022-12-29T05:56:33;5.40;;;1.75;;
75220;SDS011;63802;53.232;6.570;2022-12-29T05:58:58;6.07;;;1.77;;
75220;SDS011;63802;53.232;6.570;2022-12-29T06:01:24;4.43;;;1.73;;
75220;SDS011;63802;53.232;6.570;2022-12-29T06:03:49;11.57;;;2.22;;
75220;SDS011;63802;53.232;6.570;2022-12-29T06:06:14;10.73;;;1.83;;
75220;SDS011;63802;53.232;6.570;2022-12-29T06:08:40;12.73;;;2.15;;
75220;SDS011;63802;53.232;6.570;2022-12-29T06:11:06;6.68;;;2.10;;
75220;SDS011;63802;53.232;6.570;2022-12-29T06:13:31;12.85;;;1.98;;
75220;SDS011;63802;53.232;6.570;2022-12-29T06:15:56;7.75;;;1.75;;
75220;SDS011;63802;53.232;6.570;2022-12-29T06:18:22;10.75;;;1.70;;
75220;SDS011;63802;53.232;6.570;2022-12-29T06:20:47;7.32;;;1.85;;
75220;SDS011;63802;53.232;6.570;2022-12-29T06:23:13;5.88;;;1.60;;
75220;SDS011;63802;53.232;6.570;2022-12-29T06:25:38;10.05;;;2.08;;
75220;SDS011;63802;53.232;6.570;2022-12-29T06:28:04;8.13;;;1.65;;
75220;SDS011;63802;53.232;6.570;2022-12-29T06:30:30;6.18;;;1.67;;
75220;SDS011;63802;53.232;6.570;2022-12-29T06:32:56;5.45;;;1.20;;
75220;SDS011;63802;53.232;6.570;2022-12-29T06:35:21;11.10;;;1.92;;
75220;SDS011;63802;53.232;6.570;2022-12-29T06:37:49;8.55;;;1.88;;
75220;SDS011;63802;53.232;6.570;2022-12-29T06:40:15;9.82;;;1.60;;
75220;SDS011;63802;53.232;6.570;2022-12-29T06:42:40;8.68;;;2.28;;
75220;SDS011;63802;53.232;6.570;2022-12-29T06:45:06;11.52;;;1.83;;
75220;SDS011;63802;53.232;6.570;2022-12-29T06:47:32;10.55;;;2.00;;
75220;SDS011;63802;53.232;6.570;2022-12-29T06:49:58;13.02;;;1.65;;
75220;SDS011;63802;53.232;6.570;2022-12-29T06:52:23;6.70;;;1.63;;
75220;SDS011;63802;53.232;6.570;2022-12-29T06:54:49;8.25;;;1.95;;
75220;SDS011;63802;53.232;6.570;2022-12-29T06:57:14;8.20;;;1.77;;
75220;SDS011;63802;53.232;6.570;2022-12-29T06:59:40;11.02;;;1.77;;
75220;SDS011;63802;53.232;6.570;2022-12-29T07:02:05;13.45;;;1.92;;
75220;SDS011;63802;53.232;6.570;2022-12-29T07:04:30;15.23;;;1.88;;
75220;SDS011;63802;53.232;6.570;2022-12-29T07:06:56;7.60;;;1.60;;
75220;SDS011;63802;53.232;6.570;2022-12-29T07:09:21;6.22;;;1.63;;
75220;SDS011;63802;53.232;6.570;2022-12-29T07:11:46;10.63;;;2.10;;
75220;SDS011;63802;53.232;6.570;2022-12-29T07:14:12;9.13;;;1.85;;
75220;SDS011;63802;53.232;6.570;2022-12-29T07:16:37;9.73;;;2.08;;
75220;SDS011;63802;53.232;6.570;2022-12-29T07:19:03;12.60;;;1.80;;
75220;SDS011;63802;53.232;6.570;2022-12-29T07:21:29;11.70;;;1.48;;
75220;SDS011;63802;53.232;6.570;2022-12-29T07:23:55;10.30;;;1.70;;
75220;SDS011;63802;53.232;6.570;2022-12-29T07:26:20;9.20;;;1.42;;
75220;SDS011;63802;53.232;6.570;2022-12-29T07:28:46;7.97;;;1.60;;
75220;SDS011;63802;53.232;6.570;2022-12-29T07:31:15;10.98;;;3.00;;
75220;SDS011;63802;53.232;6.570;2022-12-29T07:33:43;9.63;;;1.60;;
75220;SDS011;63802;53.232;6.570;2022-12-29T07:36:09;9.30;;;2.28;;
75220;SDS011;63802;53.232;6.570;2022-12-29T07:38:34;7.32;;;2.00;;
75220;SDS011;63802;53.232;6.570;2022-12-29T07:41:00;6.35;;;1.60;;
75220;SDS011;63802;53.232;6.570;2022-12-29T07:43:25;12.23;;;2.17;;
75220;SDS011;63802;53.232;6.570;2022-12-29T07:45:51;17.02;;;2.28;;
75220;SDS011;63802;53.232;6.570;2022-12-29T07:48:16;12.13;;;1.67;;
75220;SDS011;63802;53.232;6.570;2022-12-29T07:50:41;9.13;;;1.58;;
75220;SDS011;63802;53.232;6.570;2022-12-29T07:53:07;5.13;;;1.35;;
75220;SDS011;63802;53.232;6.570;2022-12-29T07:55:32;10.38;;;1.80;;
75220;SDS011;63802;53.232;6.570;2022-12-29T07:57:58;12.60;;;2.10;;
75220;SDS011;63802;53.232;6.570;2022-12-29T08:00:23;9.18;;;1.73;;
75220;SDS011;63802;53.232;6.570;2022-12-29T08:02:49;12.10;;;2.08;;
75220;SDS011;63802;53.232;6.570;2022-12-29T08:05:16;10.07;;;2.00;;
75220;SDS011;63802;53.232;6.570;2022-12-29T08:07:44;16.20;;;2.28;;
75220;SDS011;63802;53.232;6.570;2022-12-29T08:10:11;6.30;;;1.92;;
75220;SDS011;63802;53.232;6.570;2022-12-29T08:12:37;11.18;;;2.00;;
75220;SDS011;63802;53.232;6.570;2022-12-29T08:15:03;12.05;;;2.33;;
75220;SDS011;63802;53.232;6.570;2022-12-29T08:17:30;7.85;;;2.00;;
75220;SDS011;63802;53.232;6.570;2022-12-29T08:19:55;5.97;;;1.95;;
75220;SDS011;63802;53.232;6.570;2022-12-29T08:22:20;12.80;;;2.22;;
75220;SDS011;63802;53.232;6.570;2022-12-29T08:24:46;11.00;;;1.98;;
75220;SDS011;63802;53.232;6.570;2022-12-29T08:27:11;17.85;;;3.40;;
75220;SDS011;63802;53.232;6.570;2022-12-29T08:29:36;8.40;;;1.65;;
75220;SDS011;63802;53.232;6.570;2022-12-29T08:32:02;15.52;;;2.05;;
75220;SDS011;63802;53.232;6.570;2022-12-29T08:34:27;12.00;;;2.40;;
75220;SDS011;63802;53.232;6.570;2022-12-29T08:36:53;13.18;;;2.88;;
75220;SDS011;63802;53.232;6.570;2022-12-29T08:39:19;10.88;;;2.00;;
75220;SDS011;63802;53.232;6.570;2022-12-29T08:41:44;14.13;;;1.60;;
75220;SDS011;63802;53.232;6.570;2022-12-29T08:44:10;10.63;;;1.88;;
75220;SDS011;63802;53.232;6.570;2022-12-29T08:46:35;10.73;;;2.17;;
75220;SDS011;63802;53.232;6.570;2022-12-29T08:49:00;10.10;;;2.00;;
75220;SDS011;63802;53.232;6.570;2022-12-29T08:51:26;17.50;;;2.53;;
75220;SDS011;63802;53.232;6.570;2022-12-29T08:53:51;15.18;;;2.38;;
75220;SDS011;63802;53.232;6.570;2022-12-29T08:56:17;13.82;;;2.25;;
75220;SDS011;63802;53.232;6.570;2022-12-29T08:58:43;20.13;;;3.58;;
75220;SDS011;63802;53.232;6.570;2022-12-29T09:01:08;15.30;;;2.88;;
75220;SDS011;63802;53.232;6.570;2022-12-29T09:03:34;10.43;;;2.10;;
75220;SDS011;63802;53.232;6.570;2022-12-29T09:05:59;19.48;;;2.53;;
75220;SDS011;63802;53.232;6.570;2022-12-29T09:08:25;16.27;;;2.63;;
75220;SDS011;63802;53.232;6.570;2022-12-29T09:10:50;14.55;;;1.80;;
75220;SDS011;63802;53.232;6.570;2022-12-29T09:13:16;13.55;;;2.13;;
75220;SDS011;63802;53.232;6.570;2022-12-29T09:15:43;17.75;;;3.15;;
75220;SDS011;63802;53.232;6.570;2022-12-29T09:18:09;11.70;;;2.20;;
75220;SDS011;63802;53.232;6.570;2022-12-29T09:20:36;17.20;;;2.55;;
75220;SDS011;63802;53.232;6.570;2022-12-29T09:23:02;12.88;;;2.10;;
75220;SDS011;63802;53.232;6.570;2022-12-29T09:25:28;17.63;;;3.55;;
75220;SDS011;63802;53.232;6.570;2022-12-29T09:27:54;21.27;;;2.88;;
75220;SDS011;63802;53.232;6.570;2022-12-29T09:30:20;7.72;;;2.03;;
75220;SDS011;63802;53.232;6.570;2022-12-29T09:32:47;14.50;;;2.65;;
75220;SDS011;63802;53.232;6.570;2022-12-29T09:35:14;18.88;;;2.35;;
75220;SDS011;63802;53.232;6.570;2022-12-29T09:37:40;16.00;;;2.75;;
75220;SDS011;63802;53.232;6.570;2022-12-29T09:40:06;12.52;;;2.28;;
75220;SDS011;63802;53.232;6.570;2022-12-29T09:42:38;12.52;;;2.33;;
75220;SDS011;63802;53.232;6.570;2022-12-29T09:45:16;20.95;;;3.17;;
75220;SDS011;63802;53.232;6.570;2022-12-29T09:47:45;13.70;;;2.35;;
75220;SDS011;63802;53.232;6.570;2022-12-29T09:50:18;11.68;;;2.78;;
75220;SDS011;63802;53.232;6.570;2022-12-29T09:52:58;14.10;;;2.13;;
75220;SDS011;63802;53.232;6.570;2022-12-29T09:55:41;16.92;;;2.10;;
75220;SDS011;63802;53.232;6.570;2022-12-29T09:58:12;13.90;;;2.20;;
75220;SDS011;63802;53.232;6.570;2022-12-29T10:00:49;10.70;;;2.13;;
75220;SDS011;63802;53.232;6.570;2022-12-29T10:03:19;11.60;;;1.83;;
75220;SDS011;63802;53.232;6.570;2022-12-29T10:08:38;11.43;;;2.17;;
75220;SDS011;63802;53.232;6.570;2022-12-29T10:11:27;10.45;;;1.85;;
75220;SDS011;63802;53.232;6.570;2022-12-29T10:19:57;12.50;;;1.85;;
75220;SDS011;63802;53.232;6.570;2022-12-29T10:24:56;10.95;;;1.83;;
75220;SDS011;63802;53.232;6.570;2022-12-29T10:27:22;10.95;;;2.00;;
75220;SDS011;63802;53.232;6.570;2022-12-29T10:29:50;13.52;;;2.13;;
75220;SDS011;63802;53.232;6.570;2022-12-29T10:34:49;12.88;;;2.30;;
75220;SDS011;63802;53.232;6.570;2022-12-29T10:39:55;9.18;;;1.63;;
75220;SDS011;63802;53.232;6.570;2022-12-29T10:42:28;9.80;;;2.35;;
75220;SDS011;63802;53.232;6.570;2022-12-29T10:44:58;7.03;;;1.88;;
75220;SDS011;63802;53.232;6.570;2022-12-29T10:47:25;9.93;;;2.55;;
75220;SDS011;63802;53.232;6.570;2022-12-29T10:49:57;12.15;;;2.42;;
75220;SDS011;63802;53.232;6.570;2022-12-29T10:52:25;10.70;;;1.80;;
75220;SDS011;63802;53.232;6.570;2022-12-29T10:57:34;9.50;;;2.28;;
75220;SDS011;63802;53.232;6.570;2022-12-29T11:00:09;12.60;;;2.13;;
75220;SDS011;63802;53.232;6.570;2022-12-29T11:05:55;13.90;;;2.30;;
75220;SDS011;63802;53.232;6.570;2022-12-29T11:08:27;14.38;;;2.33;;
75220;SDS011;63802;53.232;6.570;2022-12-29T11:11:02;7.93;;;2.40;;
75220;SDS011;63802;53.232;6.570;2022-12-29T11:13:34;16.67;;;2.50;;
75220;SDS011;63802;53.232;6.570;2022-12-29T11:16:11;11.50;;;2.70;;
75220;SDS011;63802;53.232;6.570;2022-12-29T11:18:37;20.20;;;3.03;;
75220;SDS011;63802;53.232;6.570;2022-12-29T11:21:50;16.67;;;3.05;;
75220;SDS011;63802;53.232;6.570;2022-12-29T11:26:29;21.13;;;2.83;;
75220;SDS011;63802;53.232;6.570;2022-12-29T11:31:52;21.58;;;3.72;;
75220;SDS011;63802;53.232;6.570;2022-12-29T11:34:33;17.60;;;2.97;;
75220;SDS011;63802;53.232;6.570;2022-12-29T11:37:04;12.30;;;2.53;;
75220;SDS011;63802;53.232;6.570;2022-12-29T11:39:37;15.90;;;3.20;;
75220;SDS011;63802;53.232;6.570;2022-12-29T11:42:13;14.80;;;2.90;;
75220;SDS011;63802;53.232;6.570;2022-12-29T11:44:42;22.70;;;2.90;;
75220;SDS011;63802;53.232;6.570;2022-12-29T11:47:12;14.85;;;2.78;;
75220;SDS011;63802;53.232;6.570;2022-12-29T11:49:50;14.32;;;3.08;;
75220;SDS011;63802;53.232;6.570;2022-12-29T11:52:21;20.17;;;2.78;;
75220;SDS011;63802;53.232;6.570;2022-12-29T11:54:48;14.93;;;3.70;;
75220;SDS011;63802;53.232;6.570;2022-12-29T11:57:15;12.10;;;2.22;;
75220;SDS011;63802;53.232;6.570;2022-12-29T11:59:43;17.50;;;2.05;;
75220;SDS011;63802;53.232;6.570;2022-12-29T12:05:22;10.57;;;2.25;;
75220;SDS011;63802;53.232;6.570;2022-12-29T12:07:56;19.38;;;2.90;;
75220;SDS011;63802;53.232;6.570;2022-12-29T12:13:43;15.63;;;2.40;;
75220;SDS011;63802;53.232;6.570;2022-12-29T12:16:19;16.83;;;2.72;;
75220;SDS011;63802;53.232;6.570;2022-12-29T12:18:51;9.43;;;2.05;;
75220;SDS011;63802;53.232;6.570;2022-12-29T12:29:22;19.92;;;2.80;;
75220;SDS011;63802;53.232;6.570;2022-12-29T12:32:01;19.42;;;2.22;;
75220;SDS011;63802;53.232;6.570;2022-12-29T12:34:41;16.23;;;2.30;;
75220;SDS011;63802;53.232;6.570;2022-12-29T12:40:21;17.55;;;2.00;;
75220;SDS011;63802;53.232;6.570;2022-12-29T12:46:10;17.10;;;3.33;;
75220;SDS011;63802;53.232;6.570;2022-12-29T12:58:17;13.15;;;2.05;;
75220;SDS011;63802;53.232;6.570;2022-12-29T13:18:13;9.90;;;1.70;;
75220;SDS011;63802;53.232;6.570;2022-12-29T13:20:38;8.07;;;1.40;;
75220;SDS011;63802;53.232;6.570;2022-12-29T13:23:21;7.82;;;2.05;;
75220;SDS011;63802;53.232;6.570;2022-12-29T13:25:57;7.97;;;2.00;;
75220;SDS011;63802;53.232;6.570;2022-12-29T13:28:34;12.88;;;1.58;;
75220;SDS011;63802;53.232;6.570;2022-12-29T13:34:03;6.35;;;1.27;;
75220;SDS011;63802;53.232;6.570;2022-12-29T13:36:38;6.63;;;1.58;;
75220;SDS011;63802;53.232;6.570;2022-12-29T13:39:19;8.88;;;1.30;;
75220;SDS011;63802;53.232;6.570;2022-12-29T13:44:18;10.25;;;1.60;;
75220;SDS011;63802;53.232;6.570;2022-12-29T13:46:52;6.45;;;1.50;;
75220;SDS011;63802;53.232;6.570;2022-12-29T13:49:21;10.38;;;1.25;;
75220;SDS011;63802;53.232;6.570;2022-12-29T13:51:50;23.13;;;2.70;;
75220;SDS011;63802;53.232;6.570;2022-12-29T13:54:30;7.70;;;1.52;;
75220;SDS011;63802;53.232;6.570;2022-12-29T14:00:21;5.15;;;1.42;;
75220;SDS011;63802;53.232;6.570;2022-12-29T14:07:49;8.23;;;2.40;;
75220;SDS011;63802;53.232;6.570;2022-12-29T14:10:32;4.65;;;1.45;;
75220;SDS011;63802;53.232;6.570;2022-12-29T14:15:38;7.43;;;1.75;;
75220;SDS011;63802;53.232;6.570;2022-12-29T14:20:58;8.80;;;1.45;;
75220;SDS011;63802;53.232;6.570;2022-12-29T14:23:42;10.75;;;2.00;;
75220;SDS011;63802;53.232;6.570;2022-12-29T14:26:12;10.43;;;1.52;;
75220;SDS011;63802;53.232;6.570;2022-12-29T14:28:43;12.15;;;1.35;;
75220;SDS011;63802;53.232;6.570;2022-12-29T14:34:14;7.15;;;1.25;;
75220;SDS011;63802;53.232;6.570;2022-12-29T14:36:39;6.88;;;1.50;;
75220;SDS011;63802;53.232;6.570;2022-12-29T14:42:12;12.07;;;1.70;;
75220;SDS011;63802;53.232;6.570;2022-12-29T14:44:48;11.15;;;1.42;;
75220;SDS011;63802;53.232;6.570;2022-12-29T14:49:55;12.88;;;2.20;;
75220;SDS011;63802;53.232;6.570;2022-12-29T14:52:22;22.55;;;2.50;;
75220;SDS011;63802;53.232;6.570;2022-12-29T14:57:41;11.30;;;1.48;;
75220;SDS011;63802;53.232;6.570;2022-12-29T15:00:27;9.52;;;2.28;;
75220;SDS011;63802;53.232;6.570;2022-12-29T15:03:04;7.13;;;1.88;;
75220;SDS011;63802;53.232;6.570;2022-12-29T15:08:19;9.27;;;1.70;;
75220;SDS011;63802;53.232;6.570;2022-12-29T15:11:41;16.67;;;2.05;;
75220;SDS011;63802;53.232;6.570;2022-12-29T15:13:41;8.52;;;1.63;;
75220;SDS011;63802;53.232;6.570;2022-12-29T15:18:52;14.05;;;2.30;;
75220;SDS011;63802;53.232;6.570;2022-12-29T15:21:20;14.32;;;2.08;;
75220;SDS011;63802;53.232;6.570;2022-12-29T15:23:50;9.70;;;1.88;;
75220;SDS011;63802;53.232;6.570;2022-12-29T15:26:16;11.07;;;2.13;;
75220;SDS011;63802;53.232;6.570;2022-12-29T15:28:47;9.55;;;1.88;;
75220;SDS011;63802;53.232;6.570;2022-12-29T15:33:50;10.27;;;2.92;;
75220;SDS011;63802;53.232;6.570;2022-12-29T15:38:47;10.40;;;1.98;;
75220;SDS011;63802;53.232;6.570;2022-12-29T15:44:23;15.05;;;2.25;;
75220;SDS011;63802;53.232;6.570;2022-12-29T15:47:20;14.50;;;2.47;;
75220;SDS011;63802;53.232;6.570;2022-12-29T15:49:49;10.30;;;2.47;;
75220;SDS011;63802;53.232;6.570;2022-12-29T15:54:48;7.68;;;1.83;;
75220;SDS011;63802;53.232;6.570;2022-12-29T15:57:23;20.40;;;2.50;;
75220;SDS011;63802;53.232;6.570;2022-12-29T15:59:49;12.30;;;1.77;;
75220;SDS011;63802;53.232;6.570;2022-12-29T16:02:15;13.57;;;1.65;;
75220;SDS011;63802;53.232;6.570;2022-12-29T16:04:40;9.70;;;1.95;;
75220;SDS011;63802;53.232;6.570;2022-12-29T16:07:23;11.77;;;2.35;;
75220;SDS011;63802;53.232;6.570;2022-12-29T16:09:59;13.02;;;1.98;;
75220;SDS011;63802;53.232;6.570;2022-12-29T16:12:32;4.72;;;1.50;;
75220;SDS011;63802;53.232;6.570;2022-12-29T16:15:04;6.65;;;1.90;;
75220;SDS011;63802;53.232;6.570;2022-12-29T16:17:33;12.48;;;2.13;;
75220;SDS011;63802;53.232;6.570;2022-12-29T16:22:48;20.35;;;3.10;;
75220;SDS011;63802;53.232;6.570;2022-12-29T16:25:22;14.38;;;1.90;;
75220;SDS011;63802;53.232;6.570;2022-12-29T16:27:50;11.85;;;2.10;;
75220;SDS011;63802;53.232;6.570;2022-12-29T16:32:46;10.85;;;3.30;;
75220;SDS011;63802;53.232;6.570;2022-12-29T16:35:22;8.65;;;2.10;;
75220;SDS011;63802;53.232;6.570;2022-12-29T16:38:13;8.52;;;1.65;;
75220;SDS011;63802;53.232;6.570;2022-12-29T16:46:18;12.73;;;2.55;;
75220;SDS011;63802;53.232;6.570;2022-12-29T16:48:53;10.73;;;3.33;;
75220;SDS011;63802;53.232;6.570;2022-12-29T16:51:34;3.53;;;1.60;;
75220;SDS011;63802;53.232;6.570;2022-12-29T16:54:01;5.72;;;1.13;;
75220;SDS011;63802;53.232;6.570;2022-12-29T16:56:32;7.95;;;1.98;;
75220;SDS011;63802;53.232;6.570;2022-12-29T17:01:36;2.15;;;1.20;;
75220;SDS011;63802;53.232;6.570;2022-12-29T17:04:07;10.20;;;2.25;;
75220;SDS011;63802;53.232;6.570;2022-12-29T17:06:35;5.32;;;1.48;;
75220;SDS011;63802;53.232;6.570;2022-12-29T17:09:00;3.85;;;1.40;;
75220;SDS011;63802;53.232;6.570;2022-12-29T17:11:30;5.72;;;1.35;;
75220;SDS011;63802;53.232;6.570;2022-12-29T17:20:05;7.63;;;1.80;;
75220;SDS011;63802;53.232;6.570;2022-12-29T17:22:44;5.10;;;1.92;;
75220;SDS011;63802;53.232;6.570;2022-12-29T17:25:11;6.55;;;2.20;;
75220;SDS011;63802;53.232;6.570;2022-12-29T17:31:03;11.60;;;2.55;;
75220;SDS011;63802;53.232;6.570;2022-12-29T17:33:33;7.50;;;2.58;;
75220;SDS011;63802;53.232;6.570;2022-12-29T17:36:01;15.50;;;3.30;;
75220;SDS011;63802;53.232;6.570;2022-12-29T17:38:27;11.80;;;3.35;;
75220;SDS011;63802;53.232;6.570;2022-12-29T17:40:54;9.70;;;2.58;;
75220;SDS011;63802;53.232;6.570;2022-12-29T17:43:20;34.45;;;11.38;;
75220;SDS011;63802;53.232;6.570;2022-12-29T17:45:46;10.95;;;3.40;;
75220;SDS011;63802;53.232;6.570;2022-12-29T17:48:16;14.55;;;2.28;;
75220;SDS011;63802;53.232;6.570;2022-12-29T17:50:43;22.80;;;2.45;;
75220;SDS011;63802;53.232;6.570;2022-12-29T17:53:12;11.10;;;2.50;;
75220;SDS011;63802;53.232;6.570;2022-12-29T17:55:39;15.63;;;2.60;;
75220;SDS011;63802;53.232;6.570;2022-12-29T18:00:41;10.88;;;2.47;;
75220;SDS011;63802;53.232;6.570;2022-12-29T18:03:07;9.13;;;2.08;;
75220;SDS011;63802;53.232;6.570;2022-12-29T18:05:38;9.18;;;2.05;;
75220;SDS011;63802;53.232;6.570;2022-12-29T18:08:04;11.68;;;3.08;;